createdAt,value
2022-08-19T00:04:41.534Z,85.33
2022-08-19T00:09:44.477Z,85.31
2022-08-19T00:14:47.380Z,85.22
2022-08-19T00:19:50.320Z,84.90
2022-08-19T00:24:53.485Z,84.93
2022-08-19T00:29:57.670Z,85.12
2022-08-19T00:35:00.430Z,85.87
2022-08-19T00:40:07.633Z,86.23
2022-08-19T00:45:18.195Z,86.72
2022-08-19T00:50:22.743Z,86.83
2022-08-19T00:55:29.774Z,86.69
2022-08-19T01:00:37.568Z,86.41
2022-08-19T01:05:43.347Z,86.34
2022-08-19T01:10:55.320Z,86.48
2022-08-19T01:16:02.895Z,86.88
2022-08-19T01:21:41.613Z,87.12
2022-08-19T01:26:46.567Z,87.13
2022-08-19T01:31:50.247Z,87.22
2022-08-19T01:36:53.155Z,87.62
2022-08-19T01:41:56.337Z,88.15
2022-08-19T01:46:59.134Z,88.54
2022-08-19T01:52:02.434Z,88.58
2022-08-19T01:57:10.126Z,88.87
2022-08-19T02:02:12.942Z,89.16
2022-08-19T02:07:15.730Z,89.48
2022-08-19T02:12:18.449Z,90.04
2022-08-19T02:17:21.656Z,90.17
2022-08-19T02:22:26.597Z,90.28
2022-08-19T02:27:29.320Z,90.55
2022-08-19T02:32:32.170Z,91.07
2022-08-19T02:37:54.248Z,91.25
2022-08-19T02:42:57.367Z,91.33
2022-08-19T02:48:00.078Z,91.62
2022-08-19T02:53:06.708Z,92.10
2022-08-19T02:58:09.434Z,92.29
2022-08-19T03:03:12.949Z,92.64
2022-08-19T03:08:15.925Z,92.90
2022-08-19T03:13:19.270Z,93.14
2022-08-19T03:18:23.317Z,93.39
2022-08-19T03:23:26.250Z,93.65
2022-08-19T03:28:29.491Z,93.72
2022-08-19T03:33:33.835Z,93.68
2022-08-19T03:38:44.079Z,93.89
2022-08-19T03:43:47.960Z,93.67
2022-08-19T03:48:56.732Z,93.49
2022-08-19T03:54:02.150Z,93.78
2022-08-19T03:59:07.307Z,94.18
2022-08-19T04:04:10.455Z,94.41
2022-08-19T04:09:13.212Z,94.66
2022-08-19T04:14:20.458Z,94.83
2022-08-19T04:19:24.238Z,94.90
2022-08-19T04:24:27.308Z,94.84
2022-08-19T04:29:31.299Z,94.43
2022-08-19T04:34:34.083Z,94.19
2022-08-19T04:39:55.420Z,93.49
2022-08-19T04:45:04.030Z,92.67
2022-08-19T04:50:10.149Z,92.01
2022-08-19T04:55:13.669Z,91.33
2022-08-19T05:00:16.526Z,90.75
2022-08-19T05:05:19.401Z,90.05
2022-08-19T05:10:22.299Z,89.53
2022-08-19T05:15:25.023Z,88.76
2022-08-19T05:20:46.714Z,87.87
2022-08-19T05:25:51.237Z,87.26
2022-08-19T05:30:56.507Z,86.31
2022-08-19T05:35:59.705Z,85.39
2022-08-19T05:41:10.657Z,84.70
2022-08-19T05:46:27.888Z,83.68
2022-08-19T05:51:30.934Z,82.87
2022-08-19T05:56:37.655Z,82.07
2022-08-19T06:01:42.951Z,80.24
2022-08-19T06:06:51.331Z,79.98
2022-08-19T06:11:59.862Z,78.92
2022-08-19T06:17:06.777Z,78.27
2022-08-19T06:22:12.965Z,77.30
2022-08-19T06:27:16.992Z,77.04
2022-08-19T06:32:20.157Z,75.45
2022-08-19T06:37:23.383Z,74.31
2022-08-19T06:42:26.106Z,73.75
2022-08-19T06:47:29.198Z,73.28
2022-08-19T06:52:36.405Z,72.52
2022-08-19T06:57:39.694Z,71.33
2022-08-19T07:02:48.259Z,70.63
2022-08-19T07:08:02.865Z,69.61
2022-08-19T07:13:09.120Z,68.39
2022-08-19T07:18:12.134Z,66.94
2022-08-19T07:23:15.886Z,65.68
2022-08-19T07:28:24.514Z,64.97
2022-08-19T07:33:28.101Z,64.94
2022-08-19T07:38:30.868Z,62.72
2022-08-19T07:43:34.962Z,62.11
2022-08-19T07:48:38.036Z,61.49
2022-08-19T07:53:40.920Z,61.36
2022-08-19T07:58:46.385Z,61.03
2022-08-19T08:04:09.649Z,60.29
2022-08-19T08:09:13.477Z,59.21
2022-08-19T08:14:29.437Z,57.92
2022-08-19T08:19:39.087Z,57.04
2022-08-19T08:24:41.771Z,56.02
2022-08-19T08:29:45.510Z,55.45
2022-08-19T08:34:51.728Z,54.93
2022-08-19T08:39:55.529Z,52.93
2022-08-19T08:45:00.349Z,51.88
2022-08-19T08:50:16.459Z,51.87
2022-08-19T08:55:23.926Z,51.93
2022-08-19T09:00:31.402Z,50.26
2022-08-19T09:05:50.024Z,49.01
2022-08-19T09:10:56.586Z,49.09
2022-08-19T09:16:07.776Z,47.97
2022-08-19T09:21:11.199Z,47.37
2022-08-19T09:26:20.036Z,46.04
2022-08-19T09:31:26.277Z,46.12
2022-08-19T09:36:35.446Z,46.36
2022-08-19T09:41:38.451Z,44.75
2022-08-19T09:46:43.558Z,43.82
2022-08-19T09:51:51.536Z,44.14
2022-08-19T09:56:55.128Z,43.84
2022-08-19T10:02:03.810Z,42.25
2022-08-19T10:07:14.080Z,41.57
2022-08-19T10:12:17.825Z,41.38
2022-08-19T10:17:26.701Z,40.70
2022-08-19T10:22:30.427Z,40.81
2022-08-19T10:27:34.447Z,40.87
2022-08-19T10:32:38.678Z,39.42
2022-08-19T10:38:01.831Z,38.78
2022-08-19T10:43:05.016Z,38.30
2022-08-19T10:48:07.872Z,37.82
2022-08-19T10:53:14.902Z,37.23
2022-08-19T10:58:23.265Z,37.91
2022-08-19T11:03:30.464Z,37.36
2022-08-19T11:08:34.482Z,37.48
2022-08-19T11:13:40.567Z,38.38
2022-08-19T11:18:46.560Z,38.40
2022-08-19T11:23:53.061Z,37.42
2022-08-19T11:28:58.575Z,37.27
2022-08-19T11:34:04.226Z,37.31
2022-08-19T11:39:08.774Z,37.36
2022-08-19T11:44:11.544Z,36.61
2022-08-19T11:49:16.885Z,35.83
2022-08-19T11:54:19.637Z,35.34
2022-08-19T11:59:22.324Z,34.52
2022-08-19T12:04:25.172Z,34.18
2022-08-19T12:09:27.890Z,34.30
2022-08-19T12:14:33.790Z,34.53
2022-08-19T12:19:37.905Z,34.38
2022-08-19T12:24:40.601Z,33.79
2022-08-19T12:29:43.451Z,33.61
2022-08-19T12:34:48.332Z,33.62
2022-08-19T12:39:51.142Z,34.02
2022-08-19T12:44:53.972Z,34.61
2022-08-19T12:49:56.839Z,34.62
2022-08-19T12:54:59.629Z,34.23
2022-08-19T13:00:11.804Z,33.66
2022-08-19T13:05:23.252Z,33.30
2022-08-19T13:10:35.878Z,32.74
2022-08-19T13:15:45.603Z,32.19
2022-08-19T13:20:52.585Z,31.86
2022-08-19T13:26:01.414Z,31.84
2022-08-19T13:31:22.869Z,31.91
2022-08-19T13:36:25.768Z,32.45
2022-08-19T13:41:28.859Z,32.56
2022-08-19T13:46:31.711Z,32.99
2022-08-19T13:51:34.411Z,31.58
2022-08-19T13:56:42.574Z,30.71
2022-08-19T14:01:45.350Z,30.68
2022-08-19T14:06:48.058Z,30.62
2022-08-19T14:11:51.816Z,30.59
2022-08-19T14:16:54.521Z,30.71
2022-08-19T14:21:58.702Z,30.70
2022-08-19T14:27:01.693Z,30.25
2022-08-19T14:32:04.844Z,30.05
2022-08-19T14:37:07.609Z,30.40
2022-08-19T14:42:17.179Z,30.47
2022-08-19T14:47:19.942Z,30.53
2022-08-19T14:52:26.172Z,30.48
2022-08-19T14:57:28.922Z,30.54
2022-08-19T15:02:34.824Z,30.50
2022-08-19T15:07:39.302Z,29.47
2022-08-19T15:12:43.713Z,28.26
2022-08-19T15:17:47.488Z,26.86
2022-08-19T15:22:50.867Z,25.94
2022-08-19T15:27:54.134Z,25.47
2022-08-19T15:32:59.983Z,25.29
2022-08-19T15:38:02.763Z,24.67
2022-08-19T15:43:05.973Z,24.26
2022-08-19T15:48:08.743Z,24.05
2022-08-19T15:53:11.996Z,24.73
2022-08-19T15:58:35.298Z,25.15
2022-08-19T16:03:56.893Z,25.19
2022-08-19T16:09:02.106Z,24.80
2022-08-19T16:14:05.338Z,24.53
2022-08-19T16:19:11.781Z,24.59
2022-08-19T16:24:17.516Z,24.98
2022-08-19T16:29:34.102Z,24.77
2022-08-19T16:34:43.375Z,24.80
2022-08-19T16:39:46.114Z,25.19
2022-08-19T16:44:49.053Z,25.50
2022-08-19T16:49:53.779Z,25.50
2022-08-19T16:54:58.309Z,26.32
2022-08-19T17:00:06.030Z,27.24
2022-08-19T17:05:10.240Z,27.83
2022-08-19T17:10:13.115Z,29.03
2022-08-19T17:15:15.915Z,30.68
2022-08-19T17:20:19.599Z,32.32
2022-08-19T17:25:23.262Z,34.03
2022-08-19T17:30:26.371Z,35.53
2022-08-19T17:35:29.627Z,36.75
2022-08-19T17:40:32.585Z,38.15
2022-08-19T17:45:38.727Z,39.25
2022-08-19T17:50:41.793Z,40.37
2022-08-19T17:55:44.572Z,41.25
2022-08-19T18:00:53.695Z,42.45
2022-08-19T18:05:57.446Z,43.72
2022-08-19T18:11:00.759Z,44.60
2022-08-19T18:16:07.062Z,45.51
2022-08-19T18:21:10.311Z,46.24
2022-08-19T18:26:13.420Z,46.72
2022-08-19T18:31:16.813Z,47.28
2022-08-19T18:36:37.529Z,48.03
2022-08-19T18:42:01.296Z,48.77
2022-08-19T18:47:23.166Z,49.48
2022-08-19T18:52:27.312Z,50.00
2022-08-19T18:57:30.133Z,50.15
2022-08-19T19:02:38.970Z,50.84
2022-08-19T19:07:42.491Z,51.35
2022-08-19T19:12:45.338Z,51.75
2022-08-19T19:17:48.176Z,52.07
2022-08-19T19:22:51.060Z,52.49
2022-08-19T19:27:58.941Z,52.87
2022-08-19T19:33:02.435Z,53.03
2022-08-19T19:38:05.182Z,53.51
2022-08-19T19:43:08.432Z,53.70
2022-08-19T19:48:13.616Z,53.74
2022-08-19T19:53:16.378Z,54.05
2022-08-19T19:58:21.254Z,53.90
2022-08-19T20:03:32.068Z,54.13
2022-08-19T20:08:53.802Z,54.46
2022-08-19T20:13:56.697Z,54.34
2022-08-19T20:19:01.491Z,54.19
2022-08-19T20:24:09.203Z,54.14
2022-08-19T20:29:40.028Z,53.93
2022-08-19T20:34:40.458Z,53.68
2022-08-19T20:39:43.374Z,53.68
2022-08-19T20:44:46.285Z,53.59
2022-08-19T20:49:49.043Z,53.44
2022-08-19T20:54:51.755Z,53.30
2022-08-19T20:59:54.539Z,53.47
2022-08-19T21:05:00.043Z,53.45
2022-08-19T21:10:04.854Z,53.72
2022-08-19T21:15:08.554Z,53.34
2022-08-19T21:20:11.457Z,53.50
2022-08-19T21:25:16.251Z,53.49
2022-08-19T21:30:19.047Z,53.60
2022-08-19T21:35:23.714Z,53.35
2022-08-19T21:40:27.758Z,53.60
2022-08-19T21:45:30.584Z,53.60
2022-08-19T21:50:33.384Z,53.57
2022-08-19T21:55:36.072Z,54.08
2022-08-19T22:00:39.916Z,53.79
2022-08-19T22:05:43.792Z,53.83
2022-08-19T22:10:49.700Z,54.23
2022-08-19T22:15:55.190Z,54.38
2022-08-19T22:20:57.968Z,54.50
2022-08-19T22:26:01.333Z,54.73
2022-08-19T22:31:05.983Z,54.92
2022-08-19T22:36:09.238Z,55.05
2022-08-19T22:41:11.985Z,55.62
2022-08-19T22:46:17.705Z,56.33
2022-08-19T22:51:39.403Z,56.44
2022-08-19T22:56:43.437Z,56.95
2022-08-19T23:01:46.441Z,57.30
2022-08-19T23:06:49.148Z,57.52
2022-08-19T23:11:51.894Z,57.69
2022-08-19T23:16:58.779Z,58.61
2022-08-19T23:22:02.679Z,61.73
2022-08-19T23:27:24.058Z,64.36
2022-08-19T23:32:27.398Z,66.18
2022-08-19T23:37:30.122Z,67.22
2022-08-19T23:42:33.171Z,68.25
2022-08-19T23:47:36.025Z,70.12
2022-08-19T23:52:58.955Z,72.95
2022-08-19T23:58:02.946Z,75.41
